sensor_id;sensor_type;location;lat;lon;timestamp;temperature;humidity
21891;DHT22;11110;52.386;16.940;2023-06-19T00:02:25;29.40;46.70
21891;DHT22;11110;52.386;16.940;2023-06-19T00:04:54;29.30;46.70
21891;DHT22;11110;52.386;16.940;2023-06-19T00:07:22;29.30;46.90
21891;DHT22;11110;52.386;16.940;2023-06-19T00:09:52;29.20;46.80
21891;DHT22;11110;52.386;16.940;2023-06-19T00:12:20;29.20;46.80
21891;DHT22;11110;52.386;16.940;2023-06-19T00:14:49;29.10;46.80
21891;DHT22;11110;52.386;16.940;2023-06-19T00:17:17;29.10;46.80
21891;DHT22;11110;52.386;16.940;2023-06-19T00:19:46;29.10;46.80
21891;DHT22;11110;52.386;16.940;2023-06-19T00:22:15;29.10;46.90
21891;DHT22;11110;52.386;16.940;2023-06-19T00:24:44;29.10;46.90
21891;DHT22;11110;52.386;16.940;2023-06-19T00:27:14;29.10;46.90
21891;DHT22;11110;52.386;16.940;2023-06-19T00:29:42;29.10;47.10
21891;DHT22;11110;52.386;16.940;2023-06-19T00:32:11;29.00;47.10
21891;DHT22;11110;52.386;16.940;2023-06-19T00:34:42;29.00;47.10
21891;DHT22;11110;52.386;16.940;2023-06-19T00:37:10;29.00;47.00
21891;DHT22;11110;52.386;16.940;2023-06-19T00:39:40;29.00;47.00
21891;DHT22;11110;52.386;16.940;2023-06-19T00:42:11;28.90;47.00
21891;DHT22;11110;52.386;16.940;2023-06-19T00:44:41;28.80;47.00
21891;DHT22;11110;52.386;16.940;2023-06-19T00:47:10;28.90;47.20
21891;DHT22;11110;52.386;16.940;2023-06-19T00:49:39;28.90;47.90
21891;DHT22;11110;52.386;16.940;2023-06-19T00:52:08;28.80;47.30
21891;DHT22;11110;52.386;16.940;2023-06-19T00:54:37;28.80;47.20
21891;DHT22;11110;52.386;16.940;2023-06-19T00:57:05;28.80;47.20
21891;DHT22;11110;52.386;16.940;2023-06-19T00:59:34;28.80;47.20
21891;DHT22;11110;52.386;16.940;2023-06-19T01:02:05;28.80;47.30
21891;DHT22;11110;52.386;16.940;2023-06-19T01:04:34;28.90;47.30
21891;DHT22;11110;52.386;16.940;2023-06-19T01:07:05;28.80;47.00
21891;DHT22;11110;52.386;16.940;2023-06-19T01:09:43;28.80;47.20
21891;DHT22;11110;52.386;16.940;2023-06-19T01:12:19;28.80;47.10
21891;DHT22;11110;52.386;16.940;2023-06-19T01:15:03;28.70;47.00
21891;DHT22;11110;52.386;16.940;2023-06-19T01:17:35;28.80;47.10
21891;DHT22;11110;52.386;16.940;2023-06-19T01:20:05;28.70;47.00
21891;DHT22;11110;52.386;16.940;2023-06-19T01:22:39;28.70;47.00
21891;DHT22;11110;52.386;16.940;2023-06-19T01:25:11;28.70;47.00
21891;DHT22;11110;52.386;16.940;2023-06-19T01:27:41;28.60;47.10
21891;DHT22;11110;52.386;16.940;2023-06-19T01:30:11;28.50;47.20
21891;DHT22;11110;52.386;16.940;2023-06-19T01:32:47;28.50;47.20
21891;DHT22;11110;52.386;16.940;2023-06-19T01:35:21;28.40;47.20
21891;DHT22;11110;52.386;16.940;2023-06-19T01:37:52;28.40;47.20
21891;DHT22;11110;52.386;16.940;2023-06-19T01:40:23;28.40;47.50
21891;DHT22;11110;52.386;16.940;2023-06-19T01:42:54;28.80;50.30
21891;DHT22;11110;52.386;16.940;2023-06-19T01:45:23;28.30;47.50
21891;DHT22;11110;52.386;16.940;2023-06-19T01:47:53;28.30;47.40
21891;DHT22;11110;52.386;16.940;2023-06-19T01:50:22;28.40;47.50
21891;DHT22;11110;52.386;16.940;2023-06-19T01:52:52;28.40;47.50
21891;DHT22;11110;52.386;16.940;2023-06-19T01:55:21;28.40;47.50
21891;DHT22;11110;52.386;16.940;2023-06-19T01:57:49;28.30;47.40
21891;DHT22;11110;52.386;16.940;2023-06-19T02:00:19;28.30;47.30
21891;DHT22;11110;52.386;16.940;2023-06-19T02:02:48;28.30;47.40
21891;DHT22;11110;52.386;16.940;2023-06-19T02:05:17;28.30;47.40
21891;DHT22;11110;52.386;16.940;2023-06-19T02:07:46;28.30;47.40
21891;DHT22;11110;52.386;16.940;2023-06-19T02:10:17;28.30;47.40
21891;DHT22;11110;52.386;16.940;2023-06-19T02:12:45;28.30;47.40
21891;DHT22;11110;52.386;16.940;2023-06-19T02:15:14;28.20;47.30
21891;DHT22;11110;52.386;16.940;2023-06-19T02:17:42;28.30;47.50
21891;DHT22;11110;52.386;16.940;2023-06-19T02:20:12;28.20;47.40
21891;DHT22;11110;52.386;16.940;2023-06-19T02:22:40;28.20;47.40
21891;DHT22;11110;52.386;16.940;2023-06-19T02:25:09;28.20;47.20
21891;DHT22;11110;52.386;16.940;2023-06-19T02:27:39;28.10;47.30
21891;DHT22;11110;52.386;16.940;2023-06-19T02:30:09;28.00;47.20
21891;DHT22;11110;52.386;16.940;2023-06-19T02:32:37;28.10;47.40
21891;DHT22;11110;52.386;16.940;2023-06-19T02:35:09;28.10;47.60
21891;DHT22;11110;52.386;16.940;2023-06-19T02:37:38;28.00;47.30
21891;DHT22;11110;52.386;16.940;2023-06-19T02:40:08;28.00;47.30
21891;DHT22;11110;52.386;16.940;2023-06-19T02:42:39;27.90;47.20
21891;DHT22;11110;52.386;16.940;2023-06-19T02:45:08;27.90;47.30
21891;DHT22;11110;52.386;16.940;2023-06-19T02:47:36;27.90;47.40
21891;DHT22;11110;52.386;16.940;2023-06-19T02:50:06;27.80;47.40
21891;DHT22;11110;52.386;16.940;2023-06-19T02:52:35;27.90;47.50
21891;DHT22;11110;52.386;16.940;2023-06-19T02:55:04;27.90;47.60
21891;DHT22;11110;52.386;16.940;2023-06-19T02:57:34;28.00;47.60
21891;DHT22;11110;52.386;16.940;2023-06-19T03:00:05;28.00;47.50
21891;DHT22;11110;52.386;16.940;2023-06-19T03:02:36;27.90;47.40
21891;DHT22;11110;52.386;16.940;2023-06-19T03:05:12;27.90;47.40
21891;DHT22;11110;52.386;16.940;2023-06-19T03:07:42;27.90;47.30
21891;DHT22;11110;52.386;16.940;2023-06-19T03:10:10;27.80;47.30
21891;DHT22;11110;52.386;16.940;2023-06-19T03:12:39;27.80;47.40
21891;DHT22;11110;52.386;16.940;2023-06-19T03:15:10;27.80;47.60
21891;DHT22;11110;52.386;16.940;2023-06-19T03:17:42;27.90;47.60
21891;DHT22;11110;52.386;16.940;2023-06-19T03:20:12;27.90;47.70
21891;DHT22;11110;52.386;16.940;2023-06-19T03:22:48;27.80;47.50
21891;DHT22;11110;52.386;16.940;2023-06-19T03:25:17;27.70;47.60
21891;DHT22;11110;52.386;16.940;2023-06-19T03:27:47;27.80;47.70
21891;DHT22;11110;52.386;16.940;2023-06-19T03:30:17;27.70;47.70
21891;DHT22;11110;52.386;16.940;2023-06-19T03:32:49;27.70;47.70
21891;DHT22;11110;52.386;16.940;2023-06-19T03:35:35;27.70;47.80
21891;DHT22;11110;52.386;16.940;2023-06-19T03:38:04;27.70;47.90
21891;DHT22;11110;52.386;16.940;2023-06-19T03:40:33;27.60;47.80
21891;DHT22;11110;52.386;16.940;2023-06-19T03:43:07;27.70;47.90
21891;DHT22;11110;52.386;16.940;2023-06-19T03:45:37;27.60;48.00
21891;DHT22;11110;52.386;16.940;2023-06-19T03:50:35;27.40;56.80
21891;DHT22;11110;52.386;16.940;2023-06-19T03:55:33;27.20;48.00
21891;DHT22;11110;52.386;16.940;2023-06-19T03:58:01;27.30;49.00
21891;DHT22;11110;52.386;16.940;2023-06-19T04:00:31;27.40;49.10
21891;DHT22;11110;52.386;16.940;2023-06-19T04:03:01;27.60;49.00
21891;DHT22;11110;52.386;16.940;2023-06-19T04:05:30;27.70;48.80
21891;DHT22;11110;52.386;16.940;2023-06-19T04:07:58;27.90;48.90
21891;DHT22;11110;52.386;16.940;2023-06-19T04:10:27;27.90;49.00
21891;DHT22;11110;52.386;16.940;2023-06-19T04:12:56;28.00;48.90
21891;DHT22;11110;52.386;16.940;2023-06-19T04:15:25;28.00;48.80
21891;DHT22;11110;52.386;16.940;2023-06-19T04:17:54;28.10;48.70
21891;DHT22;11110;52.386;16.940;2023-06-19T04:20:24;28.10;48.70
21891;DHT22;11110;52.386;16.940;2023-06-19T04:22:53;28.20;48.80
21891;DHT22;11110;52.386;16.940;2023-06-19T04:25:22;28.20;48.80
21891;DHT22;11110;52.386;16.940;2023-06-19T04:27:51;28.30;48.90
21891;DHT22;11110;52.386;16.940;2023-06-19T04:30:21;28.30;48.90
21891;DHT22;11110;52.386;16.940;2023-06-19T04:32:49;28.30;49.10
21891;DHT22;11110;52.386;16.940;2023-06-19T04:35:20;28.30;49.20
21891;DHT22;11110;52.386;16.940;2023-06-19T04:37:53;28.40;49.20
21891;DHT22;11110;52.386;16.940;2023-06-19T04:40:22;28.40;49.10
21891;DHT22;11110;52.386;16.940;2023-06-19T04:42:52;28.50;49.20
21891;DHT22;11110;52.386;16.940;2023-06-19T04:45:21;28.60;49.20
21891;DHT22;11110;52.386;16.940;2023-06-19T04:47:50;28.60;49.10
21891;DHT22;11110;52.386;16.940;2023-06-19T04:50:33;28.60;49.00
21891;DHT22;11110;52.386;16.940;2023-06-19T04:53:02;28.70;49.10
21891;DHT22;11110;52.386;16.940;2023-06-19T04:55:31;28.70;49.20
21891;DHT22;11110;52.386;16.940;2023-06-19T04:58:00;28.70;49.10
21891;DHT22;11110;52.386;16.940;2023-06-19T05:00:28;28.80;49.10
21891;DHT22;11110;52.386;16.940;2023-06-19T05:02:57;28.90;49.20
21891;DHT22;11110;52.386;16.940;2023-06-19T05:05:28;29.00;49.20
21891;DHT22;11110;52.386;16.940;2023-06-19T05:07:57;29.00;49.10
21891;DHT22;11110;52.386;16.940;2023-06-19T05:10:27;29.10;49.20
21891;DHT22;11110;52.386;16.940;2023-06-19T05:12:56;29.10;49.10
21891;DHT22;11110;52.386;16.940;2023-06-19T05:15:24;29.20;49.20
21891;DHT22;11110;52.386;16.940;2023-06-19T05:17:53;29.30;49.10
21891;DHT22;11110;52.386;16.940;2023-06-19T05:20:21;29.30;48.80
21891;DHT22;11110;52.386;16.940;2023-06-19T05:22:50;29.30;48.80
21891;DHT22;11110;52.386;16.940;2023-06-19T05:25:19;29.30;49.00
21891;DHT22;11110;52.386;16.940;2023-06-19T05:27:49;29.40;49.00
21891;DHT22;11110;52.386;16.940;2023-06-19T05:30:17;29.40;49.00
21891;DHT22;11110;52.386;16.940;2023-06-19T05:32:46;29.40;49.00
21891;DHT22;11110;52.386;16.940;2023-06-19T05:35:15;29.50;49.60
21891;DHT22;11110;52.386;16.940;2023-06-19T05:37:43;29.50;48.90
21891;DHT22;11110;52.386;16.940;2023-06-19T05:40:12;29.50;48.80
21891;DHT22;11110;52.386;16.940;2023-06-19T05:42:40;29.60;48.50
21891;DHT22;11110;52.386;16.940;2023-06-19T05:45:11;29.70;48.40
21891;DHT22;11110;52.386;16.940;2023-06-19T05:47:39;29.80;48.20
21891;DHT22;11110;52.386;16.940;2023-06-19T05:50:09;29.80;48.00
21891;DHT22;11110;52.386;16.940;2023-06-19T05:52:37;30.00;47.90
21891;DHT22;11110;52.386;16.940;2023-06-19T05:55:10;30.00;47.80
21891;DHT22;11110;52.386;16.940;2023-06-19T05:57:39;30.00;47.70
21891;DHT22;11110;52.386;16.940;2023-06-19T06:00:10;30.00;47.70
21891;DHT22;11110;52.386;16.940;2023-06-19T06:02:41;30.10;47.80
21891;DHT22;11110;52.386;16.940;2023-06-19T06:05:10;30.20;47.60
21891;DHT22;11110;52.386;16.940;2023-06-19T06:07:39;30.20;47.30
21891;DHT22;11110;52.386;16.940;2023-06-19T06:10:08;30.30;47.30
21891;DHT22;11110;52.386;16.940;2023-06-19T06:12:37;30.40;47.10
21891;DHT22;11110;52.386;16.940;2023-06-19T06:15:06;30.40;46.90
21891;DHT22;11110;52.386;16.940;2023-06-19T06:17:37;30.40;46.80
21891;DHT22;11110;52.386;16.940;2023-06-19T06:20:06;30.50;46.80
21891;DHT22;11110;52.386;16.940;2023-06-19T06:22:40;30.50;46.70
21891;DHT22;11110;52.386;16.940;2023-06-19T06:25:09;30.50;46.80
21891;DHT22;11110;52.386;16.940;2023-06-19T06:27:40;30.60;46.40
21891;DHT22;11110;52.386;16.940;2023-06-19T06:30:10;30.60;46.30
21891;DHT22;11110;52.386;16.940;2023-06-19T06:32:41;30.70;46.30
21891;DHT22;11110;52.386;16.940;2023-06-19T06:35:09;30.70;46.10
21891;DHT22;11110;52.386;16.940;2023-06-19T06:37:38;30.70;45.90
21891;DHT22;11110;52.386;16.940;2023-06-19T06:40:08;30.80;46.00
21891;DHT22;11110;52.386;16.940;2023-06-19T06:42:39;30.90;45.90
21891;DHT22;11110;52.386;16.940;2023-06-19T06:45:08;30.90;45.90
21891;DHT22;11110;52.386;16.940;2023-06-19T06:47:36;30.90;45.80
21891;DHT22;11110;52.386;16.940;2023-06-19T06:50:09;30.90;45.90
21891;DHT22;11110;52.386;16.940;2023-06-19T06:52:38;31.10;46.00
21891;DHT22;11110;52.386;16.940;2023-06-19T06:55:07;31.10;45.70
21891;DHT22;11110;52.386;16.940;2023-06-19T06:57:37;31.10;45.90
21891;DHT22;11110;52.386;16.940;2023-06-19T07:00:06;31.10;45.60
21891;DHT22;11110;52.386;16.940;2023-06-19T07:02:38;31.10;45.80
21891;DHT22;11110;52.386;16.940;2023-06-19T07:05:09;31.20;45.70
21891;DHT22;11110;52.386;16.940;2023-06-19T07:07:38;31.20;45.30
21891;DHT22;11110;52.386;16.940;2023-06-19T07:10:07;31.30;45.20
21891;DHT22;11110;52.386;16.940;2023-06-19T07:12:44;31.30;44.00
21891;DHT22;11110;52.386;16.940;2023-06-19T07:15:13;31.40;43.60
21891;DHT22;11110;52.386;16.940;2023-06-19T07:17:41;31.30;43.50
21891;DHT22;11110;52.386;16.940;2023-06-19T07:20:11;31.30;43.40
21891;DHT22;11110;52.386;16.940;2023-06-19T07:22:40;31.50;43.50
21891;DHT22;11110;52.386;16.940;2023-06-19T07:25:10;31.50;43.60
21891;DHT22;11110;52.386;16.940;2023-06-19T07:27:40;31.60;43.60
21891;DHT22;11110;52.386;16.940;2023-06-19T07:30:09;31.50;43.70
21891;DHT22;11110;52.386;16.940;2023-06-19T07:32:47;31.60;43.60
21891;DHT22;11110;52.386;16.940;2023-06-19T07:35:17;31.60;43.90
21891;DHT22;11110;52.386;16.940;2023-06-19T07:37:45;31.60;43.60
21891;DHT22;11110;52.386;16.940;2023-06-19T07:40:14;31.70;43.80
21891;DHT22;11110;52.386;16.940;2023-06-19T07:42:43;31.70;43.80
21891;DHT22;11110;52.386;16.940;2023-06-19T07:45:12;31.70;43.30
21891;DHT22;11110;52.386;16.940;2023-06-19T07:47:41;31.80;43.40
21891;DHT22;11110;52.386;16.940;2023-06-19T07:50:10;31.80;42.90
21891;DHT22;11110;52.386;16.940;2023-06-19T07:52:40;31.80;43.20
21891;DHT22;11110;52.386;16.940;2023-06-19T07:55:08;31.80;42.50
21891;DHT22;11110;52.386;16.940;2023-06-19T07:57:37;31.80;42.60
21891;DHT22;11110;52.386;16.940;2023-06-19T08:00:07;31.90;41.40
21891;DHT22;11110;52.386;16.940;2023-06-19T08:02:38;32.00;40.30
21891;DHT22;11110;52.386;16.940;2023-06-19T08:05:09;32.00;40.60
21891;DHT22;11110;52.386;16.940;2023-06-19T08:07:39;32.20;38.50
21891;DHT22;11110;52.386;16.940;2023-06-19T08:10:08;32.20;38.90
21891;DHT22;11110;52.386;16.940;2023-06-19T08:12:42;32.30;39.20
21891;DHT22;11110;52.386;16.940;2023-06-19T08:15:11;32.30;39.10
21891;DHT22;11110;52.386;16.940;2023-06-19T08:17:41;32.50;39.20
21891;DHT22;11110;52.386;16.940;2023-06-19T08:20:11;32.50;39.10
21891;DHT22;11110;52.386;16.940;2023-06-19T08:22:41;32.60;39.10
21891;DHT22;11110;52.386;16.940;2023-06-19T08:25:10;32.60;37.40
21891;DHT22;11110;52.386;16.940;2023-06-19T08:27:39;32.70;37.00
21891;DHT22;11110;52.386;16.940;2023-06-19T08:30:08;32.70;37.90
21891;DHT22;11110;52.386;16.940;2023-06-19T08:32:36;32.80;37.90
21891;DHT22;11110;52.386;16.940;2023-06-19T08:35:05;32.80;38.10
21891;DHT22;11110;52.386;16.940;2023-06-19T08:37:35;32.90;37.00
21891;DHT22;11110;52.386;16.940;2023-06-19T08:40:05;32.90;38.10
21891;DHT22;11110;52.386;16.940;2023-06-19T08:42:37;33.00;37.90
21891;DHT22;11110;52.386;16.940;2023-06-19T08:45:07;33.10;36.30
21891;DHT22;11110;52.386;16.940;2023-06-19T08:47:38;33.10;36.90
21891;DHT22;11110;52.386;16.940;2023-06-19T08:50:07;33.20;36.60
21891;DHT22;11110;52.386;16.940;2023-06-19T08:52:36;33.30;35.10
21891;DHT22;11110;52.386;16.940;2023-06-19T08:55:07;33.40;35.90
21891;DHT22;11110;52.386;16.940;2023-06-19T08:57:37;33.40;36.80
21891;DHT22;11110;52.386;16.940;2023-06-19T09:00:07;33.40;37.10
21891;DHT22;11110;52.386;16.940;2023-06-19T09:02:40;33.40;37.10
21891;DHT22;11110;52.386;16.940;2023-06-19T09:05:14;33.40;37.20
21891;DHT22;11110;52.386;16.940;2023-06-19T09:07:44;33.50;36.10
21891;DHT22;11110;52.386;16.940;2023-06-19T09:10:16;33.60;37.20
21891;DHT22;11110;52.386;16.940;2023-06-19T09:12:56;33.60;36.80
21891;DHT22;11110;52.386;16.940;2023-06-19T09:15:28;33.70;37.60
21891;DHT22;11110;52.386;16.940;2023-06-19T09:18:05;33.80;35.70
21891;DHT22;11110;52.386;16.940;2023-06-19T09:20:37;33.70;35.50
21891;DHT22;11110;52.386;16.940;2023-06-19T09:23:10;33.70;37.20
21891;DHT22;11110;52.386;16.940;2023-06-19T09:25:50;33.80;36.00
21891;DHT22;11110;52.386;16.940;2023-06-19T09:28:20;34.00;34.50
21891;DHT22;11110;52.386;16.940;2023-06-19T09:30:53;33.90;35.00
21891;DHT22;11110;52.386;16.940;2023-06-19T09:33:23;34.10;35.60
21891;DHT22;11110;52.386;16.940;2023-06-19T09:35:54;34.10;36.40
21891;DHT22;11110;52.386;16.940;2023-06-19T09:38:25;34.20;35.00
21891;DHT22;11110;52.386;16.940;2023-06-19T09:40:56;34.30;36.40
21891;DHT22;11110;52.386;16.940;2023-06-19T09:43:30;34.30;35.40
21891;DHT22;11110;52.386;16.940;2023-06-19T09:46:03;34.40;34.10
21891;DHT22;11110;52.386;16.940;2023-06-19T09:48:33;34.50;34.80
21891;DHT22;11110;52.386;16.940;2023-06-19T09:51:09;34.50;35.70
21891;DHT22;11110;52.386;16.940;2023-06-19T09:53:39;34.70;33.10
21891;DHT22;11110;52.386;16.940;2023-06-19T09:56:09;34.70;35.40
21891;DHT22;11110;52.386;16.940;2023-06-19T09:58:39;34.80;35.30
21891;DHT22;11110;52.386;16.940;2023-06-19T10:01:09;34.90;32.80
21891;DHT22;11110;52.386;16.940;2023-06-19T10:03:37;35.00;35.10
21891;DHT22;11110;52.386;16.940;2023-06-19T10:06:14;35.10;35.20
21891;DHT22;11110;52.386;16.940;2023-06-19T10:08:44;35.20;35.40
21891;DHT22;11110;52.386;16.940;2023-06-19T10:11:14;35.20;33.40
21891;DHT22;11110;52.386;16.940;2023-06-19T10:13:43;35.30;33.10
21891;DHT22;11110;52.386;16.940;2023-06-19T10:16:21;35.40;32.50
21891;DHT22;11110;52.386;16.940;2023-06-19T10:18:50;35.50;33.40
21891;DHT22;11110;52.386;16.940;2023-06-19T10:21:19;35.60;33.30
21891;DHT22;11110;52.386;16.940;2023-06-19T10:23:56;35.60;33.40
21891;DHT22;11110;52.386;16.940;2023-06-19T10:26:33;35.70;34.20
21891;DHT22;11110;52.386;16.940;2023-06-19T10:29:13;35.70;34.40
21891;DHT22;11110;52.386;16.940;2023-06-19T10:31:42;35.80;34.60
21891;DHT22;11110;52.386;16.940;2023-06-19T10:34:11;35.60;34.60
21891;DHT22;11110;52.386;16.940;2023-06-19T10:36:40;35.70;33.80
21891;DHT22;11110;52.386;16.940;2023-06-19T10:39:09;35.70;34.40
21891;DHT22;11110;52.386;16.940;2023-06-19T10:41:40;35.80;34.20
21891;DHT22;11110;52.386;16.940;2023-06-19T10:44:09;35.80;32.50
21891;DHT22;11110;52.386;16.940;2023-06-19T10:46:40;35.80;34.40
21891;DHT22;11110;52.386;16.940;2023-06-19T10:49:09;35.80;34.60
21891;DHT22;11110;52.386;16.940;2023-06-19T10:51:41;35.90;33.50
21891;DHT22;11110;52.386;16.940;2023-06-19T10:54:11;35.90;34.30
21891;DHT22;11110;52.386;16.940;2023-06-19T10:56:40;36.00;32.90
21891;DHT22;11110;52.386;16.940;2023-06-19T10:59:10;36.00;33.50
21891;DHT22;11110;52.386;16.940;2023-06-19T11:01:42;35.90;35.30
21891;DHT22;11110;52.386;16.940;2023-06-19T11:04:13;36.00;35.50
21891;DHT22;11110;52.386;16.940;2023-06-19T11:06:43;36.00;34.50
21891;DHT22;11110;52.386;16.940;2023-06-19T11:09:13;36.00;33.90
21891;DHT22;11110;52.386;16.940;2023-06-19T11:11:44;36.00;34.10
21891;DHT22;11110;52.386;16.940;2023-06-19T11:14:15;36.10;31.60
21891;DHT22;11110;52.386;16.940;2023-06-19T11:16:46;36.20;30.90
21891;DHT22;11110;52.386;16.940;2023-06-19T11:19:17;36.20;31.10
21891;DHT22;11110;52.386;16.940;2023-06-19T11:21:47;36.20;32.30
21891;DHT22;11110;52.386;16.940;2023-06-19T11:24:16;36.30;31.30
21891;DHT22;11110;52.386;16.940;2023-06-19T11:26:50;36.30;30.90
21891;DHT22;11110;52.386;16.940;2023-06-19T11:29:21;36.30;30.40
21891;DHT22;11110;52.386;16.940;2023-06-19T11:31:50;36.30;32.50
21891;DHT22;11110;52.386;16.940;2023-06-19T11:34:31;36.40;33.40
21891;DHT22;11110;52.386;16.940;2023-06-19T11:37:00;36.50;32.70
21891;DHT22;11110;52.386;16.940;2023-06-19T11:39:28;36.40;32.50
21891;DHT22;11110;52.386;16.940;2023-06-19T11:41:59;36.50;30.80
21891;DHT22;11110;52.386;16.940;2023-06-19T11:44:29;36.50;32.10
21891;DHT22;11110;52.386;16.940;2023-06-19T11:46:58;36.60;32.40
21891;DHT22;11110;52.386;16.940;2023-06-19T11:49:27;36.60;31.90
21891;DHT22;11110;52.386;16.940;2023-06-19T11:51:59;36.70;32.30
21891;DHT22;11110;52.386;16.940;2023-06-19T11:54:28;36.80;32.50
21891;DHT22;11110;52.386;16.940;2023-06-19T11:56:58;36.80;32.40
21891;DHT22;11110;52.386;16.940;2023-06-19T11:59:27;36.90;32.80
21891;DHT22;11110;52.386;16.940;2023-06-19T12:01:55;37.00;32.20
21891;DHT22;11110;52.386;16.940;2023-06-19T12:04:26;37.00;31.90
21891;DHT22;11110;52.386;16.940;2023-06-19T12:06:54;37.10;33.30
21891;DHT22;11110;52.386;16.940;2023-06-19T12:09:23;37.10;32.80
21891;DHT22;11110;52.386;16.940;2023-06-19T12:11:51;37.20;32.50
21891;DHT22;11110;52.386;16.940;2023-06-19T12:14:21;37.30;30.70
21891;DHT22;11110;52.386;16.940;2023-06-19T12:16:51;37.30;31.40
21891;DHT22;11110;52.386;16.940;2023-06-19T12:19:20;37.40;31.30
21891;DHT22;11110;52.386;16.940;2023-06-19T12:21:49;37.40;31.70
21891;DHT22;11110;52.386;16.940;2023-06-19T12:24:17;37.50;29.00
21891;DHT22;11110;52.386;16.940;2023-06-19T12:26:46;37.60;28.70
21891;DHT22;11110;52.386;16.940;2023-06-19T12:29:14;37.60;29.90
21891;DHT22;11110;52.386;16.940;2023-06-19T12:31:44;37.70;29.90
21891;DHT22;11110;52.386;16.940;2023-06-19T12:34:13;37.80;29.30
21891;DHT22;11110;52.386;16.940;2023-06-19T12:36:47;37.80;29.50
21891;DHT22;11110;52.386;16.940;2023-06-19T12:39:15;37.90;28.90
21891;DHT22;11110;52.386;16.940;2023-06-19T12:41:44;37.90;26.90
21891;DHT22;11110;52.386;16.940;2023-06-19T12:44:12;37.80;28.70
21891;DHT22;11110;52.386;16.940;2023-06-19T12:46:41;37.90;28.30
21891;DHT22;11110;52.386;16.940;2023-06-19T12:49:11;37.90;28.60
21891;DHT22;11110;52.386;16.940;2023-06-19T12:51:39;37.90;29.10
21891;DHT22;11110;52.386;16.940;2023-06-19T12:54:08;37.90;29.10
21891;DHT22;11110;52.386;16.940;2023-06-19T12:56:36;37.90;28.40
21891;DHT22;11110;52.386;16.940;2023-06-19T12:59:05;37.90;29.00
21891;DHT22;11110;52.386;16.940;2023-06-19T13:01:33;37.90;29.40
21891;DHT22;11110;52.386;16.940;2023-06-19T13:04:02;38.00;29.20
21891;DHT22;11110;52.386;16.940;2023-06-19T13:06:32;38.00;29.30
21891;DHT22;11110;52.386;16.940;2023-06-19T13:09:00;38.00;29.30
21891;DHT22;11110;52.386;16.940;2023-06-19T13:11:32;38.00;29.10
21891;DHT22;11110;52.386;16.940;2023-06-19T13:14:02;38.00;29.00
21891;DHT22;11110;52.386;16.940;2023-06-19T13:16:30;38.00;28.80
21891;DHT22;11110;52.386;16.940;2023-06-19T13:19:13;38.00;29.10
21891;DHT22;11110;52.386;16.940;2023-06-19T13:21:43;38.00;29.10
21891;DHT22;11110;52.386;16.940;2023-06-19T13:24:12;38.00;29.20
21891;DHT22;11110;52.386;16.940;2023-06-19T13:26:42;38.00;29.10
21891;DHT22;11110;52.386;16.940;2023-06-19T13:29:12;38.00;29.20
21891;DHT22;11110;52.386;16.940;2023-06-19T13:31:40;38.00;29.10
21891;DHT22;11110;52.386;16.940;2023-06-19T13:34:09;38.00;29.30
21891;DHT22;11110;52.386;16.940;2023-06-19T13:36:38;38.00;29.00
21891;DHT22;11110;52.386;16.940;2023-06-19T13:39:08;38.00;29.10
21891;DHT22;11110;52.386;16.940;2023-06-19T13:41:37;38.10;29.00
21891;DHT22;11110;52.386;16.940;2023-06-19T13:44:06;38.10;29.00
21891;DHT22;11110;52.386;16.940;2023-06-19T13:46:34;38.10;29.10
21891;DHT22;11110;52.386;16.940;2023-06-19T13:49:03;38.20;28.90
21891;DHT22;11110;52.386;16.940;2023-06-19T13:51:31;38.20;28.90
21891;DHT22;11110;52.386;16.940;2023-06-19T13:54:00;38.20;29.10
21891;DHT22;11110;52.386;16.940;2023-06-19T13:56:31;38.30;29.20
21891;DHT22;11110;52.386;16.940;2023-06-19T13:59:00;38.30;29.10
21891;DHT22;11110;52.386;16.940;2023-06-19T14:01:51;38.30;29.30
21891;DHT22;11110;52.386;16.940;2023-06-19T14:04:31;38.30;29.20
21891;DHT22;11110;52.386;16.940;2023-06-19T14:07:00;38.40;29.10
21891;DHT22;11110;52.386;16.940;2023-06-19T14:09:29;38.40;29.20
21891;DHT22;11110;52.386;16.940;2023-06-19T14:11:59;38.40;29.30
21891;DHT22;11110;52.386;16.940;2023-06-19T14:14:27;38.60;27.50
21891;DHT22;11110;52.386;16.940;2023-06-19T14:16:56;38.50;28.60
21891;DHT22;11110;52.386;16.940;2023-06-19T14:19:26;38.60;28.70
21891;DHT22;11110;52.386;16.940;2023-06-19T14:21:55;38.60;28.40
21891;DHT22;11110;52.386;16.940;2023-06-19T14:24:24;38.60;28.50
21891;DHT22;11110;52.386;16.940;2023-06-19T14:26:53;38.70;28.70
21891;DHT22;11110;52.386;16.940;2023-06-19T14:29:23;38.70;29.80
21891;DHT22;11110;52.386;16.940;2023-06-19T14:31:51;38.70;30.70
21891;DHT22;11110;52.386;16.940;2023-06-19T14:34:20;38.70;31.10
21891;DHT22;11110;52.386;16.940;2023-06-19T14:36:49;38.70;30.30
21891;DHT22;11110;52.386;16.940;2023-06-19T14:39:17;38.70;30.40
21891;DHT22;11110;52.386;16.940;2023-06-19T14:41:46;38.70;30.30
21891;DHT22;11110;52.386;16.940;2023-06-19T14:44:15;38.70;29.40
21891;DHT22;11110;52.386;16.940;2023-06-19T14:46:44;38.80;30.40
21891;DHT22;11110;52.386;16.940;2023-06-19T14:49:13;38.70;30.60
21891;DHT22;11110;52.386;16.940;2023-06-19T14:51:42;38.70;31.00
21891;DHT22;11110;52.386;16.940;2023-06-19T14:54:11;38.80;30.50
21891;DHT22;11110;52.386;16.940;2023-06-19T14:56:40;38.80;31.20
21891;DHT22;11110;52.386;16.940;2023-06-19T14:59:09;38.80;31.40
21891;DHT22;11110;52.386;16.940;2023-06-19T15:01:37;38.90;29.30
21891;DHT22;11110;52.386;16.940;2023-06-19T15:04:07;39.00;29.90
21891;DHT22;11110;52.386;16.940;2023-06-19T15:06:36;39.10;29.30
21891;DHT22;11110;52.386;16.940;2023-06-19T15:09:04;39.10;29.70
21891;DHT22;11110;52.386;16.940;2023-06-19T15:11:33;39.20;29.40
21891;DHT22;11110;52.386;16.940;2023-06-19T15:14:02;39.20;29.40
21891;DHT22;11110;52.386;16.940;2023-06-19T15:16:30;39.20;29.60
21891;DHT22;11110;52.386;16.940;2023-06-19T15:19:03;39.20;30.60
21891;DHT22;11110;52.386;16.940;2023-06-19T15:21:33;39.20;30.50
21891;DHT22;11110;52.386;16.940;2023-06-19T15:24:01;39.20;32.10
21891;DHT22;11110;52.386;16.940;2023-06-19T15:26:29;39.10;30.40
21891;DHT22;11110;52.386;16.940;2023-06-19T15:28:58;39.10;29.40
21891;DHT22;11110;52.386;16.940;2023-06-19T15:31:26;39.20;29.40
21891;DHT22;11110;52.386;16.940;2023-06-19T15:33:55;39.20;29.10
21891;DHT22;11110;52.386;16.940;2023-06-19T15:36:23;39.30;29.60
21891;DHT22;11110;52.386;16.940;2023-06-19T15:38:54;39.40;28.60